createdAt,value
2018-07-20T00:00:59.099Z,85.87
2018-07-20T00:01:59.146Z,85.49
2018-07-20T00:02:59.081Z,85.68
2018-07-20T00:03:59.099Z,85.00
2018-07-20T00:04:59.108Z,85.00
2018-07-20T00:05:59.201Z,84.72
2018-07-20T00:06:59.101Z,83.85
2018-07-20T00:07:59.809Z,84.14
2018-07-20T00:08:59.119Z,84.14
2018-07-20T00:09:59.097Z,84.05
2018-07-20T00:10:59.109Z,83.95
2018-07-20T00:11:59.098Z,84.18
2018-07-20T00:12:59.141Z,83.70
2018-07-20T00:13:59.162Z,83.47
2018-07-20T00:14:59.183Z,84.14
2018-07-20T00:15:59.157Z,84.14
2018-07-20T00:16:59.148Z,83.51
2018-07-20T00:17:59.120Z,83.28
2018-07-20T00:18:59.210Z,83.47
2018-07-20T00:19:59.192Z,83.56
2018-07-20T00:20:59.157Z,83.41
2018-07-20T00:21:59.201Z,83.18
2018-07-20T00:22:59.137Z,83.37
2018-07-20T00:23:59.179Z,83.47
2018-07-20T00:24:59.162Z,84.14
2018-07-20T00:25:59.167Z,84.33
2018-07-20T00:26:59.189Z,83.28
2018-07-20T00:27:59.167Z,83.08
2018-07-20T00:28:59.154Z,83.28
2018-07-20T00:29:59.215Z,83.12
2018-07-20T00:30:59.186Z,82.89
2018-07-20T00:31:59.176Z,83.31
2018-07-20T00:32:59.205Z,82.64
2018-07-20T00:33:59.186Z,82.16
2018-07-20T00:34:59.213Z,82.54
2018-07-20T00:35:59.203Z,81.96
2018-07-20T00:36:59.230Z,81.96
2018-07-20T00:37:59.186Z,81.48
2018-07-20T00:38:59.216Z,81.54
2018-07-20T00:39:59.234Z,81.58
2018-07-20T00:40:59.205Z,81.87
2018-07-20T00:41:59.239Z,81.20
2018-07-20T00:42:59.192Z,81.39
2018-07-20T00:43:59.348Z,81.77
2018-07-20T00:44:59.206Z,81.29
2018-07-20T00:45:59.210Z,81.29
2018-07-20T00:46:59.230Z,81.39
2018-07-20T00:47:59.296Z,81.58
2018-07-20T00:48:59.222Z,81.48
2018-07-20T00:49:59.223Z,81.83
2018-07-20T00:50:59.225Z,81.63
2018-07-20T00:51:59.240Z,82.02
2018-07-20T00:52:59.225Z,82.12
2018-07-20T00:53:59.308Z,81.93
2018-07-20T00:54:59.277Z,82.12
2018-07-20T00:55:59.235Z,82.60
2018-07-20T00:56:59.246Z,82.41
2018-07-20T00:57:59.284Z,82.89
2018-07-20T00:58:59.282Z,82.70
2018-07-20T00:59:59.249Z,82.79
2018-07-20T01:00:59.286Z,82.41
2018-07-20T01:01:59.823Z,82.98
2018-07-20T01:02:59.265Z,83.18
2018-07-20T01:03:59.279Z,82.98
2018-07-20T01:04:59.275Z,82.94
2018-07-20T01:05:59.286Z,82.85
2018-07-20T01:06:59.268Z,83.23
2018-07-20T01:07:59.279Z,83.52
2018-07-20T01:08:59.276Z,84.00
2018-07-20T01:09:59.274Z,83.91
2018-07-20T01:10:59.306Z,84.10
2018-07-20T01:11:59.287Z,84.19
2018-07-20T01:12:59.298Z,84.39
2018-07-20T01:13:59.298Z,84.48
2018-07-20T01:14:59.302Z,84.77
2018-07-20T01:15:59.302Z,84.58
2018-07-20T01:16:59.354Z,85.35
2018-07-20T01:17:59.314Z,85.06
2018-07-20T01:18:59.306Z,85.74
2018-07-20T01:19:59.337Z,85.83
2018-07-20T01:20:59.338Z,85.93
2018-07-20T01:21:59.334Z,85.74
2018-07-20T01:22:59.337Z,85.74
2018-07-20T01:23:59.360Z,86.51
2018-07-20T01:24:59.326Z,85.64
2018-07-20T01:25:59.343Z,85.74
2018-07-20T01:26:59.365Z,86.12
2018-07-20T01:27:59.358Z,86.02
2018-07-20T01:28:59.354Z,86.31
2018-07-20T01:29:59.350Z,86.51
2018-07-20T01:30:59.367Z,86.12
2018-07-20T01:31:59.356Z,86.31
2018-07-20T01:32:59.380Z,85.98
2018-07-20T01:33:59.349Z,86.41
2018-07-20T01:34:59.395Z,86.99
2018-07-20T01:35:59.383Z,85.78
2018-07-20T01:36:59.392Z,86.46
2018-07-20T01:37:59.425Z,86.94
2018-07-20T01:38:59.365Z,86.85
2018-07-20T01:39:59.374Z,87.04
2018-07-20T01:40:59.381Z,87.04
2018-07-20T01:41:59.417Z,87.04
2018-07-20T01:43:00.339Z,87.04
2018-07-20T01:43:59.400Z,87.04
2018-07-20T01:44:59.411Z,87.33
2018-07-20T01:45:59.407Z,87.04
2018-07-20T01:46:59.411Z,87.33
2018-07-20T01:47:59.387Z,87.33
2018-07-20T01:48:59.403Z,86.94
2018-07-20T01:49:59.402Z,87.33
2018-07-20T01:50:59.437Z,87.52
2018-07-20T01:51:59.400Z,87.81
2018-07-20T01:52:59.435Z,87.42
2018-07-20T01:53:59.458Z,88.00
2018-07-20T01:54:59.428Z,87.52
2018-07-20T01:55:59.519Z,87.71
2018-07-20T01:56:59.446Z,87.52
2018-07-20T01:57:59.461Z,87.33
2018-07-20T01:58:59.453Z,87.81
2018-07-20T01:59:59.467Z,88.39
2018-07-20T02:00:59.457Z,87.96
2018-07-20T02:01:59.479Z,88.39
2018-07-20T02:02:59.457Z,88.19
2018-07-20T02:03:59.453Z,88.57
2018-07-20T02:04:59.455Z,88.29
2018-07-20T02:05:59.462Z,88.29
2018-07-20T02:06:59.457Z,88.53
2018-07-20T02:07:59.456Z,88.15
2018-07-20T02:08:59.527Z,88.48
2018-07-20T02:09:59.461Z,88.57
2018-07-20T02:10:59.463Z,88.77
2018-07-20T02:11:59.485Z,88.44
2018-07-20T02:12:59.485Z,89.30
2018-07-20T02:13:59.467Z,89.11
2018-07-20T02:14:59.469Z,88.82
2018-07-20T02:15:59.471Z,89.21
2018-07-20T02:16:59.476Z,89.69
2018-07-20T02:17:59.476Z,89.30
2018-07-20T02:18:59.478Z,89.30
2018-07-20T02:19:59.504Z,89.40
2018-07-20T02:20:59.524Z,89.59
2018-07-20T02:21:59.587Z,89.50
2018-07-20T02:22:59.541Z,90.36
2018-07-20T02:23:59.523Z,89.40
2018-07-20T02:24:59.504Z,90.07
2018-07-20T02:25:59.500Z,90.36
2018-07-20T02:26:59.519Z,89.98
2018-07-20T02:27:59.552Z,90.45
2018-07-20T02:28:59.509Z,90.07
2018-07-20T02:29:59.509Z,90.17
2018-07-20T02:30:59.511Z,90.26
2018-07-20T02:31:59.520Z,90.26
2018-07-20T02:32:59.520Z,90.07
2018-07-20T02:33:59.529Z,90.26
2018-07-20T02:34:59.549Z,90.55
2018-07-20T02:35:59.533Z,91.13
2018-07-20T02:36:59.709Z,91.03
2018-07-20T02:37:59.533Z,90.84
2018-07-20T02:38:59.541Z,91.03
2018-07-20T02:39:59.558Z,90.94
2018-07-20T02:41:01.461Z,90.94
2018-07-20T02:41:59.620Z,91.13
2018-07-20T02:42:59.545Z,91.32
2018-07-20T02:43:59.548Z,91.22
2018-07-20T02:44:59.557Z,91.52
2018-07-20T02:45:59.549Z,91.42
2018-07-20T02:46:59.573Z,91.22
2018-07-20T02:47:59.566Z,91.32
2018-07-20T02:48:59.568Z,91.22
2018-07-20T02:49:59.642Z,91.32
2018-07-20T02:51:00.362Z,91.22
2018-07-20T02:51:59.595Z,91.66
2018-07-20T02:52:59.591Z,91.71
2018-07-20T02:53:59.602Z,91.85
2018-07-20T02:54:59.577Z,91.75
2018-07-20T02:55:59.590Z,91.66
2018-07-20T02:56:59.642Z,91.66
2018-07-20T02:57:59.596Z,91.95
2018-07-20T02:58:59.632Z,92.05
2018-07-20T02:59:59.595Z,91.56
2018-07-20T03:00:59.629Z,92.05
2018-07-20T03:01:59.622Z,92.33
2018-07-20T03:02:59.593Z,92.52
2018-07-20T03:03:59.605Z,92.52
2018-07-20T03:04:59.600Z,92.43
2018-07-20T03:05:59.632Z,92.62
2018-07-20T03:06:59.621Z,92.43
2018-07-20T03:07:59.673Z,92.62
2018-07-20T03:08:59.774Z,92.52
2018-07-20T03:09:59.649Z,93.39
2018-07-20T03:10:59.625Z,93.10
2018-07-20T03:11:59.658Z,93.68
2018-07-20T03:12:59.630Z,93.19
2018-07-20T03:13:59.640Z,93.19
2018-07-20T03:14:59.645Z,93.49
2018-07-20T03:15:59.693Z,93.58
2018-07-20T03:16:59.669Z,94.16
2018-07-20T03:17:59.639Z,93.92
2018-07-20T03:18:59.646Z,94.06
2018-07-20T03:19:59.678Z,93.92
2018-07-20T03:20:59.692Z,93.87
2018-07-20T03:21:59.646Z,94.45
2018-07-20T03:22:59.658Z,94.26
2018-07-20T03:23:59.659Z,93.92
2018-07-20T03:24:59.670Z,93.96
2018-07-20T03:25:59.707Z,94.31
2018-07-20T03:26:59.665Z,94.40
2018-07-20T03:27:59.670Z,94.49
2018-07-20T03:28:59.679Z,94.40
2018-07-20T03:29:59.691Z,94.31
2018-07-20T03:30:59.786Z,94.88
2018-07-20T03:31:59.676Z,94.98
2018-07-20T03:32:59.789Z,94.98
2018-07-20T03:33:59.718Z,94.88
2018-07-20T03:34:59.690Z,94.78
2018-07-20T03:35:59.689Z,94.78
2018-07-20T03:36:59.692Z,94.69
2018-07-20T03:37:59.730Z,94.69
2018-07-20T03:38:59.695Z,94.78
2018-07-20T03:39:59.726Z,94.69
2018-07-20T03:40:59.731Z,94.69
2018-07-20T03:41:59.725Z,94.59
2018-07-20T03:42:59.713Z,94.69
2018-07-20T03:43:59.847Z,95.65
2018-07-20T03:44:59.744Z,95.45
2018-07-20T03:45:59.723Z,95.36
2018-07-20T03:46:59.724Z,95.36
2018-07-20T03:47:59.709Z,95.45
2018-07-20T03:48:59.816Z,95.45
2018-07-20T03:49:59.734Z,96.22
2018-07-20T03:50:59.783Z,95.45
2018-07-20T03:52:01.465Z,96.22
2018-07-20T03:52:59.791Z,96.42
2018-07-20T03:54:00.391Z,96.03
2018-07-20T03:54:59.774Z,96.42
2018-07-20T03:55:59.768Z,95.75
2018-07-20T03:56:59.797Z,96.42
2018-07-20T03:57:59.747Z,96.22
2018-07-20T03:58:59.759Z,95.75
2018-07-20T03:59:59.764Z,96.13
2018-07-20T04:01:08.747Z,95.65
2018-07-20T04:02:53.245Z,96.27
2018-07-20T04:03:54.784Z,96.13
2018-07-20T04:04:53.350Z,96.42
2018-07-20T04:05:53.216Z,96.42
2018-07-20T04:06:53.163Z,96.03
2018-07-20T04:07:53.185Z,96.13
2018-07-20T04:08:53.171Z,95.45
2018-07-20T04:09:53.226Z,96.13
2018-07-20T04:10:53.181Z,96.22
2018-07-20T04:11:53.186Z,96.03
2018-07-20T04:12:53.193Z,95.94
2018-07-20T04:13:53.338Z,96.03
2018-07-20T04:14:53.226Z,95.84
2018-07-20T04:15:53.193Z,96.22
2018-07-20T04:16:53.207Z,96.32
2018-07-20T04:17:53.216Z,95.65
2018-07-20T04:18:53.216Z,96.22
2018-07-20T04:19:53.224Z,95.94
2018-07-20T04:20:53.200Z,95.94
2018-07-20T04:21:53.247Z,96.13
2018-07-20T04:22:53.231Z,96.03
2018-07-20T04:23:53.220Z,95.45
2018-07-20T04:24:53.233Z,95.50
2018-07-20T04:25:53.279Z,95.50
2018-07-20T04:26:53.255Z,94.93
2018-07-20T04:27:53.250Z,95.36
2018-07-20T04:28:53.241Z,95.70
2018-07-20T04:29:53.265Z,95.50
2018-07-20T04:30:53.233Z,95.40
2018-07-20T04:31:53.250Z,95.03
2018-07-20T04:32:53.243Z,95.60
2018-07-20T04:33:53.264Z,94.93
2018-07-20T04:34:53.295Z,95.40
2018-07-20T04:35:53.249Z,95.31
2018-07-20T04:36:53.267Z,95.50
2018-07-20T04:37:53.302Z,95.50
2018-07-20T04:38:53.295Z,95.60
2018-07-20T04:39:53.306Z,94.88
2018-07-20T04:40:53.300Z,95.45
2018-07-20T04:41:53.268Z,95.17
2018-07-20T04:42:53.254Z,95.12
2018-07-20T04:43:53.323Z,95.03
2018-07-20T04:44:53.267Z,94.93
2018-07-20T04:45:53.271Z,95.55
2018-07-20T04:46:53.306Z,95.21
2018-07-20T04:47:53.331Z,95.40
2018-07-20T04:48:53.300Z,94.93
2018-07-20T04:49:53.357Z,95.79
2018-07-20T04:50:53.321Z,95.40
2018-07-20T04:51:53.330Z,95.70
2018-07-20T04:52:53.349Z,94.93
2018-07-20T04:53:53.319Z,95.12
2018-07-20T04:54:53.337Z,94.78
2018-07-20T04:55:53.298Z,94.40
2018-07-20T04:56:53.301Z,94.16
2018-07-20T04:57:53.335Z,94.16
2018-07-20T04:58:53.378Z,94.64
2018-07-20T04:59:53.366Z,94.54
2018-07-20T05:00:53.314Z,94.54
2018-07-20T05:01:53.324Z,94.16
2018-07-20T05:02:53.338Z,93.82
2018-07-20T05:03:53.318Z,93.82
2018-07-20T05:04:53.321Z,93.53
2018-07-20T05:05:53.409Z,94.01
2018-07-20T05:06:53.329Z,92.61
2018-07-20T05:07:53.339Z,92.81
2018-07-20T05:08:53.326Z,91.75
2018-07-20T05:09:53.341Z,92.13
2018-07-20T05:10:53.337Z,91.94
2018-07-20T05:11:53.361Z,92.04
2018-07-20T05:12:53.363Z,91.46
2018-07-20T05:13:53.353Z,91.36
2018-07-20T05:14:53.366Z,91.08
2018-07-20T05:15:53.369Z,90.55
2018-07-20T05:16:53.376Z,90.64
2018-07-20T05:17:53.363Z,90.26
2018-07-20T05:18:53.360Z,90.41
2018-07-20T05:19:53.377Z,90.69
2018-07-20T05:20:53.512Z,90.21
2018-07-20T05:21:53.372Z,90.41
2018-07-20T05:22:53.379Z,90.41
2018-07-20T05:23:53.391Z,90.16
2018-07-20T05:24:53.401Z,89.97
2018-07-20T05:25:53.384Z,90.73
2018-07-20T05:26:53.428Z,91.03
2018-07-20T05:27:53.414Z,90.93
2018-07-20T05:28:53.392Z,90.45
2018-07-20T05:29:53.388Z,89.68
2018-07-20T05:30:53.409Z,89.29
2018-07-20T05:31:53.395Z,88.76
2018-07-20T05:32:53.408Z,88.28
2018-07-20T05:33:53.417Z,88.57
2018-07-20T05:34:53.423Z,88.90
2018-07-20T05:35:53.413Z,85.96
2018-07-20T05:36:53.409Z,84.99
2018-07-20T05:37:53.428Z,83.88
2018-07-20T05:38:53.441Z,83.30
2018-07-20T05:39:53.430Z,83.45
2018-07-20T05:40:53.427Z,84.03
2018-07-20T05:41:53.433Z,82.28
2018-07-20T05:42:53.501Z,79.70
2018-07-20T05:43:53.508Z,76.16
2018-07-20T05:44:53.465Z,73.82
2018-07-20T05:45:53.503Z,72.50
2018-07-20T05:46:53.459Z,70.95
2018-07-20T05:47:53.478Z,69.63
2018-07-20T05:48:53.491Z,68.40
2018-07-20T05:49:53.475Z,68.50
2018-07-20T05:50:53.475Z,69.47
2018-07-20T05:51:53.472Z,67.82
2018-07-20T05:52:53.522Z,68.05
2018-07-20T05:53:53.473Z,66.60
2018-07-20T05:54:53.484Z,67.79
2018-07-20T05:55:53.487Z,67.44
2018-07-20T05:56:53.487Z,66.20
2018-07-20T05:57:53.491Z,66.14
2018-07-20T05:58:53.496Z,65.47
2018-07-20T05:59:53.507Z,65.08
2018-07-20T06:00:53.531Z,65.37
2018-07-20T06:01:53.528Z,65.11
2018-07-20T06:02:53.513Z,64.17
2018-07-20T06:03:53.529Z,63.78
2018-07-20T06:04:53.527Z,63.65
2018-07-20T06:05:53.548Z,64.88
2018-07-20T06:06:53.561Z,65.37
2018-07-20T06:07:53.546Z,65.08
2018-07-20T06:08:53.578Z,65.82
2018-07-20T06:09:53.606Z,66.40
2018-07-20T06:10:53.580Z,66.53
2018-07-20T06:11:53.633Z,67.27
2018-07-20T06:12:53.589Z,66.40
2018-07-20T06:13:53.612Z,66.30
2018-07-20T06:14:53.600Z,65.30
2018-07-20T06:15:53.594Z,64.59
2018-07-20T06:16:53.595Z,66.47
2018-07-20T06:17:53.638Z,68.08
2018-07-20T06:18:53.630Z,69.34
2018-07-20T06:19:53.636Z,68.21
2018-07-20T06:20:53.661Z,66.34
2018-07-20T06:21:53.629Z,66.53
2018-07-20T06:22:53.647Z,65.20
2018-07-20T06:23:53.749Z,63.88
2018-07-20T06:24:53.681Z,63.32
2018-07-20T06:25:53.656Z,61.35
2018-07-20T06:26:53.692Z,60.21
2018-07-20T06:27:53.675Z,59.67
2018-07-20T06:28:53.676Z,61.54
2018-07-20T06:29:53.689Z,61.02
2018-07-20T06:30:53.710Z,61.51
2018-07-20T06:31:53.735Z,62.04
2018-07-20T06:32:53.742Z,63.04
2018-07-20T06:33:53.718Z,62.68
2018-07-20T06:34:53.828Z,61.83
2018-07-20T06:35:53.779Z,61.44
2018-07-20T06:36:53.752Z,62.87
2018-07-20T06:37:53.755Z,62.62
2018-07-20T06:38:53.769Z,64.30
2018-07-20T06:39:53.767Z,65.43
2018-07-20T06:40:53.813Z,67.60
2018-07-20T06:41:53.783Z,68.66
2018-07-20T06:42:53.804Z,69.50
2018-07-20T06:43:53.827Z,66.86
2018-07-20T06:44:53.816Z,63.84
2018-07-20T06:45:53.846Z,62.65
2018-07-20T06:46:53.832Z,63.42
2018-07-20T06:47:53.869Z,63.49
2018-07-20T06:48:53.854Z,64.98
2018-07-20T06:49:53.963Z,65.69
2018-07-20T06:50:53.867Z,66.20
2018-07-20T06:51:53.906Z,66.63
2018-07-20T06:52:53.893Z,66.92
2018-07-20T06:53:53.929Z,66.24
2018-07-20T06:54:53.888Z,66.63
2018-07-20T06:55:54.036Z,67.57
2018-07-20T06:56:53.925Z,67.11
2018-07-20T06:57:53.946Z,66.92
2018-07-20T06:58:53.949Z,66.82
2018-07-20T06:59:53.942Z,67.50
2018-07-20T07:00:53.977Z,66.34
2018-07-20T07:01:53.987Z,64.53
2018-07-20T07:02:53.958Z,62.54
2018-07-20T07:03:53.977Z,61.60
2018-07-20T07:04:53.982Z,60.36
2018-07-20T07:05:53.997Z,59.62
2018-07-20T07:06:54.020Z,59.03
2018-07-20T07:07:54.004Z,61.47
2018-07-20T07:08:54.027Z,61.41
2018-07-20T07:09:54.012Z,60.17
2018-07-20T07:10:54.024Z,59.78
2018-07-20T07:11:54.060Z,59.81
2018-07-20T07:12:54.120Z,60.50
2018-07-20T07:13:55.782Z,60.17
2018-07-20T07:14:54.086Z,59.72
2018-07-20T07:15:54.080Z,59.81
2018-07-20T07:16:54.090Z,59.06
2018-07-20T07:17:54.131Z,58.27
2018-07-20T07:18:54.104Z,55.54
2018-07-20T07:19:54.126Z,55.96
2018-07-20T07:20:54.194Z,56.87
2018-07-20T07:21:54.157Z,57.17
2018-07-20T07:22:54.369Z,56.58
2018-07-20T07:23:54.157Z,55.83
2018-07-20T07:24:54.218Z,57.40
2018-07-20T07:25:54.233Z,57.93
2018-07-20T07:26:54.222Z,60.75
2018-07-20T07:27:54.217Z,58.80
2018-07-20T07:28:54.215Z,58.07
2018-07-20T07:29:54.225Z,56.77
2018-07-20T07:30:54.274Z,57.20
2018-07-20T07:31:54.260Z,57.07
2018-07-20T07:32:54.320Z,57.21
2018-07-20T07:33:54.271Z,59.33
2018-07-20T07:34:54.295Z,58.40
2018-07-20T07:35:54.376Z,56.25
2018-07-20T07:36:54.333Z,55.18
2018-07-20T07:37:54.461Z,55.08
2018-07-20T07:38:54.339Z,53.25
2018-07-20T07:39:54.375Z,54.81
2018-07-20T07:40:54.365Z,54.61
2018-07-20T07:41:54.399Z,53.56
2018-07-20T07:42:54.398Z,54.13
2018-07-20T07:43:54.441Z,55.15
2018-07-20T07:44:54.436Z,57.13
2018-07-20T07:45:54.457Z,55.00
2018-07-20T07:46:54.446Z,53.88
2018-07-20T07:47:54.465Z,53.69
2018-07-20T07:48:54.486Z,54.03
2018-07-20T07:49:54.508Z,55.40
2018-07-20T07:50:54.505Z,53.91
2018-07-20T07:51:54.531Z,53.66
2018-07-20T07:52:54.540Z,55.13
2018-07-20T07:53:54.548Z,54.85
2018-07-20T07:54:54.593Z,55.86
2018-07-20T07:55:54.568Z,55.06
2018-07-20T07:56:54.600Z,53.06
2018-07-20T07:57:54.593Z,51.78
2018-07-20T07:58:54.612Z,51.61
2018-07-20T07:59:54.618Z,52.27
2018-07-20T08:00:54.689Z,52.67
2018-07-20T08:01:54.669Z,52.76
2018-07-20T08:02:54.690Z,54.11
2018-07-20T08:03:54.691Z,52.67
2018-07-20T08:04:54.733Z,52.52
2018-07-20T08:05:56.341Z,51.46
2018-07-20T08:06:55.354Z,51.39
2018-07-20T08:07:54.757Z,52.00
2018-07-20T08:08:54.764Z,51.46
2018-07-20T08:09:54.887Z,50.63
2018-07-20T08:10:54.846Z,50.59
2018-07-20T08:11:54.898Z,50.78
2018-07-20T08:12:54.827Z,49.70
2018-07-20T08:13:54.849Z,48.94
2018-07-20T08:14:54.854Z,48.96
2018-07-20T08:15:54.963Z,49.43
2018-07-20T08:16:54.883Z,49.14
2018-07-20T08:17:54.903Z,50.02
2018-07-20T08:18:54.921Z,49.85
2018-07-20T08:19:54.995Z,48.99
2018-07-20T08:20:54.949Z,49.46
2018-07-20T08:21:54.969Z,48.67
2018-07-20T08:22:55.104Z,48.77
2018-07-20T08:23:55.022Z,50.20
2018-07-20T08:24:55.062Z,50.81
2018-07-20T08:25:55.050Z,50.04
2018-07-20T08:26:55.064Z,49.68
2018-07-20T08:27:55.861Z,48.43
2018-07-20T08:28:55.098Z,47.15
2018-07-20T08:29:55.102Z,47.69
2018-07-20T08:30:55.152Z,48.94
2018-07-20T08:31:55.178Z,50.63
2018-07-20T08:32:55.177Z,49.99
2018-07-20T08:33:55.211Z,49.97
2018-07-20T08:34:55.223Z,49.41
2018-07-20T08:35:55.366Z,50.09
2018-07-20T08:36:55.267Z,50.49
2018-07-20T08:37:55.302Z,50.49
2018-07-20T08:38:55.323Z,50.54
2018-07-20T08:39:55.313Z,51.12
2018-07-20T08:40:55.667Z,51.51
2018-07-20T08:41:55.364Z,49.02
2018-07-20T08:42:55.396Z,49.55
2018-07-20T08:43:55.381Z,48.43
2018-07-20T08:44:55.431Z,46.17
2018-07-20T08:45:56.292Z,45.50
2018-07-20T08:46:55.418Z,46.19
2018-07-20T08:47:55.465Z,45.99
2018-07-20T08:48:56.300Z,46.34
2018-07-20T08:49:55.508Z,47.00
2018-07-20T08:50:55.508Z,47.81
2018-07-20T08:51:55.548Z,46.95
2018-07-20T08:52:55.552Z,47.10
2018-07-20T08:53:55.566Z,47.22
2018-07-20T08:54:55.638Z,46.06
2018-07-20T08:55:55.680Z,45.87
2018-07-20T08:56:55.792Z,45.20
2018-07-20T08:57:55.616Z,44.93
2018-07-20T08:58:55.733Z,44.42
2018-07-20T08:59:55.727Z,45.42
2018-07-20T09:00:55.733Z,44.15
2018-07-20T09:01:55.697Z,43.87
2018-07-20T09:02:55.718Z,44.07
2018-07-20T09:03:55.757Z,43.83
2018-07-20T09:04:55.767Z,45.50
2018-07-20T09:05:56.296Z,45.28
2018-07-20T09:06:56.789Z,45.10
2018-07-20T09:07:55.815Z,45.32
2018-07-20T09:08:55.825Z,44.95
2018-07-20T09:09:55.870Z,44.52
2018-07-20T09:10:56.792Z,44.52
2018-07-20T09:11:55.898Z,45.30
2018-07-20T09:12:55.898Z,45.55
2018-07-20T09:13:56.078Z,46.59
2018-07-20T09:14:55.974Z,46.73
2018-07-20T09:15:56.000Z,45.48
2018-07-20T09:16:56.005Z,45.48
2018-07-20T09:17:55.995Z,46.19
2018-07-20T09:18:56.022Z,45.52
2018-07-20T09:19:56.059Z,44.54
2018-07-20T09:20:56.146Z,45.50
2018-07-20T09:21:56.904Z,45.95
2018-07-20T09:22:56.167Z,45.60
2018-07-20T09:23:56.165Z,45.38
2018-07-20T09:24:56.195Z,45.77
2018-07-20T09:25:56.172Z,45.30
2018-07-20T09:26:56.703Z,43.85
2018-07-20T09:27:56.365Z,43.95
2018-07-20T09:28:56.291Z,44.20
2018-07-20T09:42:24.143Z,40.92
2018-07-20T09:43:17.437Z,42.89
2018-07-20T09:44:19.581Z,42.41
2018-07-20T09:45:17.179Z,42.30
2018-07-20T09:46:17.662Z,42.81
2018-07-20T09:47:18.589Z,42.20
2018-07-20T09:48:17.392Z,42.22
2018-07-20T09:49:17.320Z,42.49
2018-07-20T09:50:17.361Z,43.46
2018-07-20T09:51:17.327Z,44.02
2018-07-20T09:52:17.404Z,45.40
2018-07-20T09:53:17.372Z,43.46
2018-07-20T09:54:17.374Z,43.48
2018-07-20T09:55:17.486Z,42.41
2018-07-20T09:56:17.459Z,42.81
2018-07-20T09:57:17.502Z,42.57
2018-07-20T09:58:17.547Z,43.26
2018-07-20T09:59:17.566Z,42.30
2018-07-20T10:00:17.489Z,42.61
2018-07-20T10:01:17.566Z,43.04
2018-07-20T10:02:17.606Z,42.94
2018-07-20T10:03:17.704Z,42.86
2018-07-20T10:04:18.605Z,42.67
2018-07-20T10:05:17.640Z,42.45
2018-07-20T10:06:17.640Z,43.41
2018-07-20T10:07:17.699Z,44.20
2018-07-20T10:08:17.755Z,44.40
2018-07-20T10:09:17.765Z,44.40
2018-07-20T10:10:17.774Z,43.65
2018-07-20T10:11:17.800Z,43.48
2018-07-20T10:12:17.847Z,43.40
2018-07-20T10:13:17.854Z,42.12
2018-07-20T10:14:17.996Z,42.86
2018-07-20T10:15:17.883Z,43.62
2018-07-20T10:16:17.909Z,42.85
2018-07-20T10:17:17.911Z,42.58
2018-07-20T10:18:17.969Z,41.78
2018-07-20T10:19:17.927Z,41.06
2018-07-20T10:20:17.993Z,41.53
2018-07-20T10:21:19.069Z,41.06
2018-07-20T10:22:17.989Z,41.16
2018-07-20T10:23:18.017Z,39.32
2018-07-20T10:24:18.202Z,39.52
2018-07-20T10:25:18.135Z,39.72
2018-07-20T10:26:18.083Z,39.58
2018-07-20T10:27:20.750Z,41.25
2018-07-20T10:28:18.191Z,39.70
2018-07-20T10:29:18.204Z,42.61
2018-07-20T10:30:18.236Z,42.96
2018-07-20T10:31:18.299Z,43.38
2018-07-20T10:32:18.259Z,42.93
2018-07-20T10:33:18.307Z,42.16
2018-07-20T10:34:21.406Z,41.09
2018-07-20T10:35:39.834Z,41.57
2018-07-20T10:36:19.778Z,41.94
2018-07-20T10:37:18.840Z,42.83
2018-07-20T10:38:19.628Z,42.10
2018-07-20T10:39:23.630Z,41.63
2018-07-20T10:40:20.319Z,42.28
2018-07-20T10:41:22.777Z,42.92
2018-07-20T10:42:18.811Z,43.06
2018-07-20T10:43:18.467Z,42.61
2018-07-20T10:44:18.572Z,41.96
2018-07-20T10:45:18.625Z,42.00
2018-07-20T10:46:18.674Z,42.82
2018-07-20T10:47:19.149Z,42.75
2018-07-20T10:48:18.581Z,42.99
2018-07-20T10:49:18.609Z,41.04
2018-07-20T10:50:18.622Z,41.31
2018-07-20T10:51:18.628Z,42.00
2018-07-20T10:52:18.691Z,42.55
2018-07-20T10:53:18.931Z,43.51
2018-07-20T10:54:18.703Z,44.27
2018-07-20T10:55:18.761Z,44.13
2018-07-20T10:56:18.757Z,45.51
2018-07-20T10:57:18.783Z,45.68
2018-07-20T10:58:21.067Z,45.39
2018-07-20T10:59:18.788Z,45.25
2018-07-20T11:00:18.808Z,45.54
2018-07-20T11:01:18.852Z,46.47
2018-07-20T11:02:18.862Z,47.16
2018-07-20T11:03:19.632Z,47.45
2018-07-20T11:04:18.898Z,48.36
2018-07-20T11:05:18.890Z,48.14
2018-07-20T11:06:19.156Z,48.82
2018-07-20T11:07:18.950Z,48.36
2018-07-20T11:08:18.972Z,47.03
2018-07-20T11:09:18.949Z,47.06
2018-07-20T11:10:19.050Z,45.66
2018-07-20T11:11:19.798Z,45.68
2018-07-20T11:12:19.016Z,45.90
2018-07-20T11:13:19.070Z,45.21
2018-07-20T11:14:19.067Z,45.14
2018-07-20T11:15:20.154Z,43.74
2018-07-20T11:16:19.094Z,45.15
2018-07-20T11:17:19.107Z,46.03
2018-07-20T11:18:19.086Z,45.76
2018-07-20T11:19:19.123Z,46.25
2018-07-20T11:20:19.183Z,45.39
2018-07-20T11:21:19.158Z,45.98
2018-07-20T11:22:19.168Z,46.13
2018-07-20T11:23:19.179Z,46.20
2018-07-20T11:24:19.288Z,47.38
2018-07-20T11:25:20.151Z,47.23
2018-07-20T11:26:20.737Z,47.06
2018-07-20T11:27:19.229Z,46.27
2018-07-20T11:28:19.356Z,47.79
2018-07-20T11:29:19.349Z,46.89
2018-07-20T11:30:19.305Z,47.16
2018-07-20T11:31:19.300Z,47.57
2018-07-20T11:32:19.328Z,46.72
2018-07-20T11:33:19.325Z,46.98
2018-07-20T11:34:19.341Z,46.84
2018-07-20T11:35:19.367Z,46.55
2018-07-20T11:36:19.336Z,47.11
2018-07-20T11:37:19.395Z,48.09
2018-07-20T11:38:19.390Z,47.82
2018-07-20T11:39:19.418Z,48.72
2018-07-20T11:40:20.155Z,48.19
2018-07-20T11:41:19.541Z,46.44
2018-07-20T11:42:20.429Z,46.27
2018-07-20T11:43:23.384Z,46.59
2018-07-20T11:44:22.497Z,45.98
2018-07-20T11:45:20.154Z,45.66
2018-07-20T11:46:20.157Z,45.86
2018-07-20T11:47:20.826Z,46.54
2018-07-20T11:48:41.050Z,44.98
2018-07-20T11:49:19.680Z,45.37
2018-07-20T11:50:19.583Z,46.56
2018-07-20T11:51:19.509Z,46.08
2018-07-20T11:52:19.580Z,45.98
2018-07-20T11:53:19.569Z,45.00
2018-07-20T11:54:19.565Z,46.66
2018-07-20T11:55:19.589Z,46.27
2018-07-20T11:56:19.568Z,45.02
2018-07-20T11:57:19.645Z,46.79
2018-07-20T11:58:19.688Z,48.41
2018-07-20T11:59:19.629Z,46.66
2018-07-20T12:00:19.659Z,45.80
2018-07-20T12:02:52.695Z,47.25
2018-07-20T12:03:52.142Z,46.95
2018-07-20T12:04:52.160Z,46.76
2018-07-20T12:05:53.061Z,47.45
2018-07-20T12:06:52.220Z,46.56
2018-07-20T12:07:52.206Z,47.20
2018-07-20T12:08:52.186Z,47.47
2018-07-20T12:09:58.978Z,46.77
2018-07-20T12:10:52.463Z,47.26
2018-07-20T12:11:52.505Z,48.43
2018-07-20T12:12:52.246Z,46.62
2018-07-20T12:13:52.272Z,46.64
2018-07-20T12:14:52.274Z,46.03
2018-07-20T12:15:52.406Z,46.15
2018-07-20T12:16:52.273Z,46.17
2018-07-20T12:17:53.833Z,46.37
2018-07-20T12:18:52.317Z,46.10
2018-07-20T12:19:52.331Z,45.14
2018-07-20T12:20:52.339Z,45.51
2018-07-20T12:21:52.349Z,44.92
2018-07-20T12:22:57.650Z,45.00
2018-07-20T12:23:53.400Z,45.17
2018-07-20T12:24:52.399Z,45.05
2018-07-20T12:25:52.417Z,46.62
2018-07-20T12:26:52.429Z,47.23
2018-07-20T12:27:52.448Z,46.34
2018-07-20T12:28:52.402Z,46.94
2018-07-20T12:29:52.483Z,46.94
2018-07-20T12:30:52.592Z,47.55
2018-07-20T12:31:52.688Z,47.64
2018-07-20T12:32:52.463Z,48.60
2018-07-20T12:33:59.467Z,48.58
2018-07-20T12:34:58.027Z,49.65
2018-07-20T12:35:52.505Z,49.92
2018-07-20T12:36:52.520Z,49.75
2018-07-20T12:37:52.549Z,48.31
2018-07-20T12:38:52.607Z,49.19
2018-07-20T12:39:52.572Z,49.07
2018-07-20T12:40:53.255Z,50.07
2018-07-20T12:41:52.592Z,49.80
2018-07-20T12:42:52.615Z,49.33
2018-07-20T12:43:52.615Z,48.48
2018-07-20T12:44:52.637Z,48.28
2018-07-20T12:46:00.967Z,48.68
2018-07-20T12:46:53.090Z,47.30
2018-07-20T12:47:52.671Z,47.50
2018-07-20T12:48:52.702Z,46.91
2018-07-20T12:49:52.714Z,48.36
2018-07-20T12:50:52.677Z,48.26
2018-07-20T12:51:52.683Z,48.75
2018-07-20T12:52:52.697Z,48.53
2018-07-20T12:53:52.731Z,48.33
2018-07-20T12:54:52.726Z,49.02
2018-07-20T12:55:52.697Z,50.10
2018-07-20T12:56:53.399Z,50.02
2018-07-20T12:57:55.382Z,48.36
2018-07-20T12:58:53.077Z,48.28
2018-07-20T12:59:52.790Z,47.38
2018-07-20T13:00:52.882Z,48.28
2018-07-20T13:01:52.804Z,48.28
2018-07-20T13:02:53.335Z,47.11
2018-07-20T13:03:52.930Z,47.18
2018-07-20T13:04:52.839Z,47.01
2018-07-20T13:05:52.827Z,47.23
2018-07-20T13:06:52.866Z,47.20
2018-07-20T13:07:52.820Z,47.40